Yuho Maru No.6 — JD3708 — position and weather

sailwx.info

Track history (hours):
 
Tides and Currents Weather Stations Pressure Air Temp Water Temp Dewpoint Dewpoint Depression Visibility Wind Speed Wind Dir Waves Ship Positions

Yuho Maru No.6

Last reported at 2017-Oct-21 07:57 UTC. Time now 2017-Oct-22 06:21 UTC.
Position N 35°31' E 139°53'.

Length 65 m; draft 4.5 m.

Type: Tanker. MMSI: 431005551.

Date/timePositionNaut miles runAvg speedWind from/ knotsBaromVisibWave heightAir tempDewpointWater temp
2017-Oct-21 07:57N 35°31' E 139°53'711.1
2017-Oct-21 07:19N 35°25' E 139°48'311.0
2017-Oct-21 07:01N 35°22' E 139°45'510.9
2017-Oct-21 06:31N 35°17' E 139°46'510.8
2017-Oct-21 06:01N 35°11' E 139°46'611.0
2017-Oct-21 05:30N 35°06' E 139°44'510.9
2017-Oct-21 05:00N 35°02' E 139°39'611.8
2017-Oct-21 04:30N 34°59' E 139°33'229 8.5
2017-Oct-20 01:41N 34°07' E 135°02'312.3
2017-Oct-20 01:28N 34°10' E 135°03'612.3
2017-Oct-20 01:00N 34°16' E 135°03'611.5
2017-Oct-20 00:30N 34°21' E 135°07'4 0.1
2017-Oct-18 05:42N 34°23' E 135°11'911.4
2017-Oct-18 04:58N 34°31' E 135°06'613.4
2017-Oct-18 04:30N 34°36' E 135°03'  
2017-Oct-14 13:18N 34°47' E 139°07'2611.3
2017-Oct-14 10:59N 35°03' E 139°32'612.2
2017-Oct-14 10:30N 35°06' E 139°39'612.8
2017-Oct-14 10:00N 35°10' E 139°44'612.3
2017-Oct-14 09:30N 35°16' E 139°46'612.3
2017-Oct-14 09:01N 35°21' E 139°42'611.2
2017-Oct-14 08:31N 35°26' E 139°46'612.2
2017-Oct-14 07:59N 35°30' E 139°52'711.6
2017-Oct-14 07:25N 35°29' E 140°00'1 0.2
2017-Oct-14 03:10N 35°28' E 140°01'1 5.3
2017-Oct-14 03:00N 35°29' E 140°00'4 7.1
2017-Oct-14 02:26N 35°32' E 139°57'4 9.1
2017-Oct-14 02:00N 35°35' E 139°54'6 0.3
2017-Oct-13 06:25N 35°30' E 139°51'511.0
2017-Oct-13 06:00N 35°28' E 139°47'2 0.4
2017-Oct-13 01:48N 35°27' E 139°45'0 1.4
2017-Oct-13 01:30N 35°27' E 139°45'1 1.0
2017-Oct-13 01:00N 35°27' E 139°44'1 1.5
2017-Oct-13 00:30N 35°27' E 139°45'3 5.8
2017-Oct-13 00:01N 35°28' E 139°48'15 0.8
2017-Oct-12 04:29N 35°41' E 139°59'7 9.7
2017-Oct-12 03:43N 35°34' E 139°55'312.6
2017-Oct-12 03:29N 35°32' E 139°52'510.9
2017-Oct-12 03:00N 35°30' E 139°46'0 0.1
2017-Oct-11 23:06N 35°31' E 139°46'0 0.5
2017-Oct-11 23:00N 35°31' E 139°46'3 0.8
2017-Oct-11 19:14N 35°28' E 139°49'311.8
2017-Oct-11 18:59N 35°26' E 139°47'612.2
2017-Oct-11 18:30N 35°20' E 139°44'611.3
2017-Oct-11 18:00N 35°15' E 139°47'611.3
2017-Oct-11 17:30N 35°10' E 139°46'611.5
2017-Oct-11 17:00N 35°05' E 139°42'  
Track history (hours):
 
Tides and Currents Weather Stations Pressure Air Temp Water Temp Dewpoint Dewpoint Depression Visibility Wind Speed Wind Dir Waves Ship Positions

Yuho Maru No.6

Last reported at 2017-Oct-21 07:57 UTC. Time now 2017-Oct-22 06:21 UTC.
Position N 35°31' E 139°53'.

Length 65 m; draft 4.5 m.

Type: Tanker. MMSI: 431005551.

Date/timePositionNaut miles runAvg speedWind from/ knotsBaromVisibWave heightAir tempDewpointWater temp
2017-Oct-21 07:57N 35°31' E 139°53'711.1
2017-Oct-21 07:19N 35°25' E 139°48'311.0
2017-Oct-21 07:01N 35°22' E 139°45'510.9
2017-Oct-21 06:31N 35°17' E 139°46'510.8
2017-Oct-21 06:01N 35°11' E 139°46'611.0
2017-Oct-21 05:30N 35°06' E 139°44'510.9
2017-Oct-21 05:00N 35°02' E 139°39'611.8
2017-Oct-21 04:30N 34°59' E 139°33'229 8.5
2017-Oct-20 01:41N 34°07' E 135°02'312.3
2017-Oct-20 01:28N 34°10' E 135°03'612.3
2017-Oct-20 01:00N 34°16' E 135°03'611.5
2017-Oct-20 00:30N 34°21' E 135°07'4 0.1
2017-Oct-18 05:42N 34°23' E 135°11'911.4
2017-Oct-18 04:58N 34°31' E 135°06'613.4
2017-Oct-18 04:30N 34°36' E 135°03'  
2017-Oct-14 13:18N 34°47' E 139°07'2611.3
2017-Oct-14 10:59N 35°03' E 139°32'612.2
2017-Oct-14 10:30N 35°06' E 139°39'612.8
2017-Oct-14 10:00N 35°10' E 139°44'612.3
2017-Oct-14 09:30N 35°16' E 139°46'612.3
2017-Oct-14 09:01N 35°21' E 139°42'611.2
2017-Oct-14 08:31N 35°26' E 139°46'612.2
2017-Oct-14 07:59N 35°30' E 139°52'711.6
2017-Oct-14 07:25N 35°29' E 140°00'1 0.2
2017-Oct-14 03:10N 35°28' E 140°01'1 5.3
2017-Oct-14 03:00N 35°29' E 140°00'4 7.1
2017-Oct-14 02:26N 35°32' E 139°57'4 9.1
2017-Oct-14 02:00N 35°35' E 139°54'6 0.3
2017-Oct-13 06:25N 35°30' E 139°51'511.0
2017-Oct-13 06:00N 35°28' E 139°47'2 0.4
2017-Oct-13 01:48N 35°27' E 139°45'0 1.4
2017-Oct-13 01:30N 35°27' E 139°45'1 1.0
2017-Oct-13 01:00N 35°27' E 139°44'1 1.5
2017-Oct-13 00:30N 35°27' E 139°45'3 5.8
2017-Oct-13 00:01N 35°28' E 139°48'15 0.8
2017-Oct-12 04:29N 35°41' E 139°59'7 9.7
2017-Oct-12 03:43N 35°34' E 139°55'312.6
2017-Oct-12 03:29N 35°32' E 139°52'510.9
2017-Oct-12 03:00N 35°30' E 139°46'0 0.1
2017-Oct-11 23:06N 35°31' E 139°46'0 0.5
2017-Oct-11 23:00N 35°31' E 139°46'3 0.8
2017-Oct-11 19:14N 35°28' E 139°49'311.8
2017-Oct-11 18:59N 35°26' E 139°47'612.2
2017-Oct-11 18:30N 35°20' E 139°44'611.3
2017-Oct-11 18:00N 35°15' E 139°47'611.3
2017-Oct-11 17:30N 35°10' E 139°46'611.5
2017-Oct-11 17:00N 35°05' E 139°42'  

Dump ship's entire track history